Time;durP1;ratioP1;P1;durP2;ratioP2;P2;SDS_P1;SDS_P2;PMS_P1;PMS_P2;Temp;Humidity;BMP_temperature;BMP_pressure;BME280_temperature;BME280_humidity;BME280_pressure;Samples;Min_cycle;Max_cycle;Signal;HPM_P1;HPM_P2
2023/09/15 00:00:43;;;;;;;12.43;8.32;;;;;;;14.83;100.00;101986.19;5103813;27;20078;-67
2023/09/15 00:03:09;;;;;;;14.05;8.95;;;;;;;14.80;100.00;101988.31;5092884;28;20178;-67
2023/09/15 00:05:38;;;;;;;12.20;9.48;;;;;;;14.75;100.00;101990.53;5082247;28;20435;-67
2023/09/15 00:08:05;;;;;;;11.13;7.95;;;;;;;14.73;100.00;101987.22;5098809;28;20131;-67
2023/09/15 00:10:38;;;;;;;15.70;8.30;;;;;;;14.71;100.00;101983.88;5086635;28;20051;-66
2023/09/15 00:13:05;;;;;;;12.20;8.43;;;;;;;14.72;100.00;101990.81;5103999;28;20051;-67
2023/09/15 00:15:32;;;;;;;11.52;7.55;;;;;;;14.73;100.00;101982.75;5090860;27;20104;-67
2023/09/15 00:17:59;;;;;;;12.52;7.72;;;;;;;14.70;100.00;101975.16;5098846;28;20047;-67
2023/09/15 00:20:25;;;;;;;14.70;7.82;;;;;;;14.73;100.00;101976.66;5098779;27;20074;-67
2023/09/15 00:22:54;;;;;;;9.55;7.38;;;;;;;14.71;100.00;101975.97;5095958;28;20131;-67
2023/09/15 00:25:26;;;;;;;10.98;7.47;;;;;;;14.72;100.00;101980.25;5111710;27;20044;-67
2023/09/15 00:27:57;;;;;;;11.50;8.18;;;;;;;14.67;100.00;101978.06;5103173;27;20080;-67
2023/09/15 00:30:25;;;;;;;13.10;7.00;;;;;;;14.65;100.00;101977.38;5098648;27;20047;-67
2023/09/15 00:32:52;;;;;;;10.88;7.10;;;;;;;14.62;100.00;101965.31;5084676;27;20051;-67
2023/09/15 00:35:22;;;;;;;14.27;8.15;;;;;;;14.59;100.00;101965.56;5100355;27;20036;-67
2023/09/15 00:37:50;;;;;;;10.48;6.72;;;;;;;14.58;100.00;101965.72;5094111;27;20044;-67
2023/09/15 00:40:19;;;;;;;12.43;7.00;;;;;;;14.55;100.00;101961.53;5107798;27;20043;-66
2023/09/15 00:42:47;;;;;;;10.93;7.40;;;;;;;14.54;100.00;101962.50;5103470;27;20537;-66
2023/09/15 00:45:15;;;;;;;11.60;7.38;;;;;;;14.52;100.00;101969.72;5092867;27;20164;-67
2023/09/15 00:47:46;;;;;;;15.00;7.18;;;;;;;14.50;100.00;101963.75;5089785;28;20306;-66
2023/09/15 00:50:20;;;;;;;10.35;7.07;;;;;;;14.50;100.00;101961.13;5088545;28;20055;-66
2023/09/15 00:52:51;;;;;;;8.70;6.80;;;;;;;14.48;100.00;101960.44;5099593;27;20124;-66
2023/09/15 00:55:21;;;;;;;9.13;7.10;;;;;;;14.46;100.00;101959.75;5096236;27;20062;-66
2023/09/15 00:57:54;;;;;;;11.77;7.30;;;;;;;14.43;100.00;101965.34;5096575;28;20484;-66
2023/09/15 01:00:21;;;;;;;10.60;7.35;;;;;;;14.35;100.00;101962.59;5100855;27;20067;-67
2023/09/15 01:02:49;;;;;;;11.73;6.45;;;;;;;14.33;100.00;101961.88;5091677;28;20051;-66
2023/09/15 01:05:23;;;;;;;11.57;7.50;;;;;;;14.33;100.00;101959.22;5105759;27;20047;-67
2023/09/15 01:07:52;;;;;;;10.35;6.97;;;;;;;14.30;100.00;101951.63;5093614;28;20054;-67
2023/09/15 01:10:20;;;;;;;11.57;7.30;;;;;;;14.31;100.00;101951.47;5101151;27;20051;-67
2023/09/15 01:12:49;;;;;;;10.30;7.07;;;;;;;14.32;100.00;101950.50;5091190;27;20530;-67
2023/09/15 01:15:19;;;;;;;9.65;6.68;;;;;;;14.31;100.00;101948.00;5097866;27;20420;-67
2023/09/15 01:18:07;;;;;;;11.00;6.78;;;;;;;14.30;100.00;101941.06;5108480;27;20206;-68
2023/09/15 01:20:48;;;;;;;9.45;7.00;;;;;;;14.26;100.00;101940.50;5102120;27;20043;-67
2023/09/15 01:23:36;;;;;;;9.85;6.78;;;;;;;14.26;100.00;101935.22;5107375;27;20047;-67
2023/09/15 01:26:15;;;;;;;;;;;;;;;14.28;100.00;101937.72;5087660;28;20377;-67
2023/09/15 01:29:05;;;;;;;13.40;7.28;;;;;;;14.22;100.00;101931.22;5101566;27;20359;-67
2023/09/15 01:31:33;;;;;;;9.05;6.53;;;;;;;14.20;100.00;101934.00;5087393;28;20043;-67
2023/09/15 01:34:00;;;;;;;9.35;6.88;;;;;;;14.17;100.00;101929.03;5102326;27;20052;-67
2023/09/15 01:36:27;;;;;;;8.75;6.38;;;;;;;14.18;100.00;101935.13;5089344;28;20048;-67
2023/09/15 01:38:53;;;;;;;9.50;6.25;;;;;;;14.19;100.00;101934.97;5100777;27;20067;-66
2023/09/15 01:41:20;;;;;;;11.43;6.25;;;;;;;14.18;100.00;101930.66;5091266;28;20059;-67
2023/09/15 01:43:46;;;;;;;9.80;6.90;;;;;;;14.13;100.00;101930.28;5095103;27;20047;-67
2023/09/15 01:46:13;;;;;;;11.05;7.18;;;;;;;14.14;100.00;101931.94;5098226;28;20055;-67
2023/09/15 01:48:40;;;;;;;11.18;6.88;;;;;;;14.12;100.00;101931.25;5096731;27;20051;-67
2023/09/15 01:51:08;;;;;;;8.85;5.85;;;;;;;14.09;100.00;101928.06;5107552;27;20105;-67
2023/09/15 01:53:36;;;;;;;10.45;6.88;;;;;;;14.06;100.00;101931.00;5090422;27;20458;-67
2023/09/15 01:56:03;;;;;;;10.57;6.10;;;;;;;14.04;100.00;101924.03;5099934;27;20043;-67
2023/09/15 01:58:29;;;;;;;11.57;6.40;;;;;;;14.01;100.00;101929.63;5090255;27;20502;-67
2023/09/15 02:00:55;;;;;;;33.22;7.72;;;;;;;14.01;100.00;101929.63;5102069;27;20170;-67
2023/09/15 02:03:22;;;;;;;13.23;6.70;;;;;;;13.95;100.00;101926.69;5103229;27;20100;-67
2023/09/15 02:05:49;;;;;;;9.02;6.88;;;;;;;13.92;100.00;101932.28;5103936;27;20085;-67
2023/09/15 02:08:15;;;;;;;11.00;6.97;;;;;;;13.84;100.00;101922.41;5098226;27;20442;-67
2023/09/15 02:10:42;;;;;;;12.50;6.18;;;;;;;13.84;100.00;101925.06;5095429;27;20075;-67
2023/09/15 02:13:08;;;;;;;12.63;6.38;;;;;;;13.80;100.00;101924.50;5099901;28;20047;-67
2023/09/15 02:15:35;;;;;;;10.80;6.88;;;;;;;13.78;100.00;101922.97;5089159;28;20048;-67
2023/09/15 02:18:01;;;;;;;13.52;6.43;;;;;;;13.75;100.00;101929.34;5098699;27;20051;-67
2023/09/15 02:20:28;;;;;;;10.50;6.85;;;;;;;13.69;100.00;101916.72;5101022;28;20427;-70
2023/09/15 02:22:57;;;;;;;12.35;7.18;;;;;;;13.68;100.00;101916.88;5083193;28;20051;-67
2023/09/15 02:25:23;;;;;;;10.82;6.57;;;;;;;13.68;100.00;101917.72;5096263;27;20055;-67
2023/09/15 02:27:50;;;;;;;10.13;6.45;;;;;;;13.68;100.00;101922.13;5089921;27;20062;-67
2023/09/15 02:30:16;;;;;;;9.05;6.03;;;;;;;13.69;100.00;101921.19;5095689;27;20051;-67
2023/09/15 02:32:44;;;;;;;12.00;6.93;;;;;;;13.65;100.00;101908.25;5099270;27;20093;-67
2023/09/15 02:35:11;;;;;;;9.70;6.40;;;;;;;13.69;100.00;101915.91;5096933;27;20579;-66
2023/09/15 02:37:37;;;;;;;9.43;5.82;;;;;;;13.68;100.00;101917.72;5104067;27;20061;-67
2023/09/15 02:40:05;;;;;;;10.45;6.05;;;;;;;13.69;100.00;101918.53;5089898;28;20108;-66
2023/09/15 02:42:33;;;;;;;8.98;6.13;;;;;;;13.69;100.00;101919.38;5096789;27;20827;-68
2023/09/15 02:45:00;;;;;;;11.55;6.45;;;;;;;13.67;100.00;101917.84;5101285;27;20063;-67
2023/09/15 02:47:28;;;;;;;9.85;5.88;;;;;;;13.66;100.00;101909.09;5098364;28;20111;-67
2023/09/15 02:49:55;;;;;;;7.55;5.72;;;;;;;13.63;100.00;101906.75;5095205;28;20427;-67
2023/09/15 02:52:21;;;;;;;9.23;5.70;;;;;;;13.59;100.00;101908.81;5083581;28;20273;-67
2023/09/15 02:54:48;;;;;;;10.18;6.22;;;;;;;13.57;100.00;101909.94;5106972;27;20051;-66
2023/09/15 02:57:15;;;;;;;9.13;5.75;;;;;;;13.55;100.00;101898.72;5091752;27;20055;-67
2023/09/15 02:59:41;;;;;;;9.02;5.78;;;;;;;13.58;100.00;101895.78;5107124;27;20134;-67
2023/09/15 03:02:12;;;;;;;10.68;5.88;;;;;;;13.57;100.00;101899.41;5094355;27;20052;-67
2023/09/15 03:04:39;;;;;;;10.88;6.43;;;;;;;13.54;100.00;101900.50;5101842;27;20054;-67
2023/09/15 03:07:06;;;;;;;12.50;6.18;;;;;;;13.53;100.00;101903.28;5093161;28;20561;-66
2023/09/15 03:09:33;;;;;;;7.78;5.70;;;;;;;13.52;100.00;101905.06;5092508;28;20594;-67
2023/09/15 03:12:00;;;;;;;11.68;6.20;;;;;;;13.50;100.00;101904.38;5100005;27;20104;-68
2023/09/15 03:14:26;;;;;;;12.10;6.55;;;;;;;13.45;100.00;101899.53;5094181;28;20150;-67
2023/09/15 03:16:53;;;;;;;9.55;5.88;;;;;;;13.46;100.00;101903.00;5096079;28;20101;-67
2023/09/15 03:19:21;;;;;;;8.75;5.60;;;;;;;13.44;100.00;101911.03;5083556;28;20051;-67
2023/09/15 03:21:48;;;;;;;13.95;6.75;;;;;;;13.42;100.00;101898.97;5102750;27;20469;-67
2023/09/15 03:24:14;;;;;;;10.05;6.15;;;;;;;13.40;100.00;101907.03;5103819;27;20043;-67
2023/09/15 03:26:41;;;;;;;10.93;5.97;;;;;;;13.40;100.00;101907.03;5093558;27;20135;-67
2023/09/15 03:29:07;;;;;;;9.07;6.15;;;;;;;13.35;100.00;101893.44;5099902;28;20547;-67
2023/09/15 03:31:34;;;;;;;10.02;5.45;;;;;;;13.34;100.00;101901.47;5087049;28;20079;-67
2023/09/15 03:34:00;;;;;;;11.32;6.10;;;;;;;13.31;100.00;101904.38;5092337;28;20100;-67
2023/09/15 03:36:28;;;;;;;10.57;6.22;;;;;;;13.26;100.00;101904.78;5090874;28;20047;-68
2023/09/15 03:38:56;;;;;;;9.60;6.20;;;;;;;13.24;100.00;101897.00;5102368;27;20052;-67
2023/09/15 03:41:25;;;;;;;9.63;5.82;;;;;;;13.23;100.00;101894.50;5103493;27;20130;-67
2023/09/15 03:43:52;;;;;;;8.73;6.20;;;;;;;13.18;100.00;101886.19;5090870;28;20602;-67
2023/09/15 03:46:18;;;;;;;8.25;5.72;;;;;;;13.18;100.00;101884.38;5099441;27;20129;-67
2023/09/15 03:48:45;;;;;;;10.80;5.53;;;;;;;13.17;100.00;101885.38;5087258;27;20087;-67
2023/09/15 03:51:12;;;;;;;9.63;5.80;;;;;;;13.17;100.00;101882.72;5110913;27;20050;-67
2023/09/15 03:53:38;;;;;;;12.00;5.80;;;;;;;13.16;100.00;101886.31;5100607;28;20075;-67
2023/09/15 03:56:05;;;;;;;10.43;5.85;;;;;;;13.17;100.00;101882.72;5092563;28;20128;-67
2023/09/15 03:58:32;;;;;;;9.80;5.97;;;;;;;13.16;100.00;101878.41;5098091;28;20805;-67
2023/09/15 04:01:03;;;;;;;8.25;5.70;;;;;;;13.17;100.00;101872.19;5086556;28;20500;-67
2023/09/15 04:03:29;;;;;;;10.30;5.70;;;;;;;13.17;100.00;101869.56;5096079;27;20047;-67
2023/09/15 04:05:56;;;;;;;11.95;6.20;;;;;;;13.19;100.00;101867.63;5096096;28;20088;-66
2023/09/15 04:08:22;;;;;;;10.60;6.25;;;;;;;13.18;100.00;101867.75;5101517;28;20464;-67
2023/09/15 04:10:49;;;;;;;11.57;5.82;;;;;;;13.18;100.00;101859.84;5103700;28;20096;-67
2023/09/15 04:13:15;;;;;;;8.77;5.88;;;;;;;13.19;100.00;101864.13;5096587;27;20051;-67
2023/09/15 04:15:42;;;;;;;9.20;5.65;;;;;;;13.16;100.00;101861.78;5095527;27;20048;-67
2023/09/15 04:18:11;;;;;;;7.75;5.10;;;;;;;13.15;100.00;101862.75;5094209;27;20511;-67
2023/09/15 04:20:38;;;;;;;11.60;6.28;;;;;;;13.14;100.00;101863.72;5114208;27;20149;-67
2023/09/15 04:23:12;;;;;;;10.40;5.50;;;;;;;13.14;100.00;101869.00;5100719;27;20690;-67
2023/09/15 04:25:38;;;;;;;9.95;5.72;;;;;;;13.12;100.00;101871.75;5107131;27;20081;-67
2023/09/15 04:28:05;;;;;;;9.63;4.93;;;;;;;13.13;100.00;101862.91;5103804;27;20043;-67
2023/09/15 04:30:31;;;;;;;10.10;5.63;;;;;;;13.10;100.00;101868.44;5114482;27;20074;-67
2023/09/15 04:32:59;;;;;;;10.90;5.68;;;;;;;13.10;100.00;101871.06;5123315;27;20065;-67
2023/09/15 04:35:27;;;;;;;9.38;5.40;;;;;;;13.10;100.00;101859.69;5101269;27;20070;-68
2023/09/15 04:37:54;;;;;;;8.10;4.93;;;;;;;13.06;100.00;101861.78;5110909;27;20047;-67
2023/09/15 04:40:21;;;;;;;9.70;5.88;;;;;;;13.05;100.00;101863.59;5114980;27;20051;-67
2023/09/15 04:42:48;;;;;;;9.02;5.68;;;;;;;13.02;100.00;101869.13;5094426;27;20058;-67
2023/09/15 04:45:14;;;;;;;11.40;5.40;;;;;;;13.00;100.00;101871.06;5100614;28;20874;-69
2023/09/15 04:47:41;;;;;;;12.55;5.80;;;;;;;12.99;100.00;101877.28;5095752;27;20051;-67
2023/09/15 04:50:08;;;;;;;8.50;5.13;;;;;;;12.96;100.00;101867.03;5122777;27;20047;-67
2023/09/15 04:52:34;;;;;;;9.93;5.70;;;;;;;12.94;100.00;101876.03;5110163;27;20438;-69
2023/09/15 04:55:01;;;;;;;9.63;5.18;;;;;;;12.92;100.00;101870.91;5111554;27;20135;-69
2023/09/15 04:57:27;;;;;;;8.57;4.85;;;;;;;12.89;100.00;101871.16;5094021;28;20558;-68
2023/09/15 04:59:54;;;;;;;8.98;5.03;;;;;;;12.87;100.00;101873.09;5098967;27;20055;-68
2023/09/15 05:02:23;;;;;;;9.68;5.65;;;;;;;12.89;100.00;101878.25;5102218;27;20058;-68
2023/09/15 05:04:51;;;;;;;12.93;5.40;;;;;;;12.86;100.00;101872.28;5098449;27;20104;-68
2023/09/15 05:07:17;;;;;;;8.88;5.25;;;;;;;12.84;100.00;101868.94;5108769;27;20052;-68
2023/09/15 05:09:45;;;;;;;11.60;6.20;;;;;;;12.80;100.00;101864.06;5093320;27;20407;-68
2023/09/15 05:12:15;;;;;;;11.07;5.93;;;;;;;12.81;100.00;101871.84;5100434;27;20642;-68
2023/09/15 05:14:42;;;;;;;9.57;5.38;;;;;;;12.80;100.00;101871.97;5102099;27;20656;-69
2023/09/15 05:17:08;;;;;;;11.85;5.90;;;;;;;12.77;100.00;101869.63;5089312;28;20059;-68
2023/09/15 05:19:35;;;;;;;8.88;5.32;;;;;;;12.73;100.00;101869.06;5099792;28;20051;-68
2023/09/15 05:22:01;;;;;;;10.13;5.82;;;;;;;12.75;100.00;101875.03;5098976;27;20043;-69
2023/09/15 05:24:28;;;;;;;9.93;6.18;;;;;;;12.74;100.00;101873.38;5097362;27;20511;-68
2023/09/15 05:26:54;;;;;;;10.35;6.78;;;;;;;12.75;100.00;101869.75;5093692;27;20059;-68
2023/09/15 05:29:20;;;;;;;9.70;7.68;;;;;;;12.76;100.00;101870.56;5098769;27;20466;-68
2023/09/15 05:31:47;;;;;;;14.02;6.82;;;;;;;12.77;100.00;101872.25;5100758;27;20051;-68
2023/09/15 05:34:14;;;;;;;12.50;6.53;;;;;;;12.79;100.00;101875.59;5098824;27;20055;-68
2023/09/15 05:36:40;;;;;;;11.38;6.22;;;;;;;12.78;100.00;101879.16;5100257;28;20055;-68
2023/09/15 05:39:07;;;;;;;11.70;6.63;;;;;;;12.80;100.00;101877.22;5086780;27;20499;-67
2023/09/15 05:41:34;;;;;;;13.35;7.15;;;;;;;12.79;100.00;101884.31;5103332;27;20166;-68
2023/09/15 05:44:00;;;;;;;10.07;5.78;;;;;;;12.83;100.00;101884.88;5102465;27;20052;-69
2023/09/15 05:46:27;;;;;;;11.98;6.55;;;;;;;12.82;100.00;101886.69;5100524;27;20048;-69
2023/09/15 05:48:54;;;;;;;10.20;6.82;;;;;;;12.80;100.00;101887.78;5104441;27;20073;-69
2023/09/15 05:51:20;;;;;;;10.45;5.20;;;;;;;12.80;100.00;101887.78;5094025;27;20055;-69
2023/09/15 05:53:47;;;;;;;10.27;6.70;;;;;;;12.81;100.00;101886.81;5096403;27;20093;-68
2023/09/15 05:56:14;;;;;;;12.57;6.85;;;;;;;12.81;100.00;101889.44;5098660;27;20431;-68
2023/09/15 05:58:41;;;;;;;11.55;6.72;;;;;;;12.86;100.00;101889.88;5099195;27;20050;-69
2023/09/15 06:01:07;;;;;;;12.82;6.70;;;;;;;12.85;100.00;101885.56;5104322;27;20054;-68
2023/09/15 06:03:36;;;;;;;15.73;7.22;;;;;;;12.86;100.00;101885.44;5094270;27;20065;-68
2023/09/15 06:06:03;;;;;;;16.85;7.13;;;;;;;12.94;100.00;101883.94;5102939;27;20047;-68
2023/09/15 06:08:29;;;;;;;24.35;8.77;;;;;;;12.96;100.00;101890.72;5086856;27;20128;-68
2023/09/15 06:10:56;;;;;;;26.85;10.48;;;;;;;12.98;100.00;101885.34;5110072;27;20054;-68
2023/09/15 06:13:23;;;;;;;24.83;9.15;;;;;;;13.02;100.00;101894.63;5095358;27;20047;-69
2023/09/15 06:15:49;;;;;;;18.27;8.18;;;;;;;13.05;100.00;101899.59;5099438;28;20482;-68
2023/09/15 06:18:16;;;;;;;16.40;6.70;;;;;;;13.06;100.00;101896.00;5102319;27;20619;-67
2023/09/15 06:20:42;;;;;;;14.35;6.95;;;;;;;13.06;100.00;101901.28;5090642;27;20040;-68
2023/09/15 06:23:09;;;;;;;15.25;6.97;;;;;;;13.09;100.00;101900.16;5104342;27;20134;-67
2023/09/15 06:25:35;;;;;;;14.70;7.13;;;;;;;13.11;100.00;101893.78;5096858;27;20086;-68
2023/09/15 06:28:02;;;;;;;11.10;6.45;;;;;;;13.16;100.00;101907.41;5104015;27;20066;-68
2023/09/15 06:30:46;;;;;;;12.98;6.45;;;;;;;13.20;100.00;101900.06;5094281;27;20059;-69
2023/09/15 06:33:12;;;;;;;12.60;7.50;;;;;;;13.21;100.00;101899.91;5108127;27;20051;-68
2023/09/15 06:35:39;;;;;;;11.85;6.60;;;;;;;13.24;100.00;101902.25;5092758;27;20484;-67
2023/09/15 06:38:06;;;;;;;11.98;6.35;;;;;;;13.28;100.00;101902.81;5095323;28;20039;-68
2023/09/15 06:40:35;;;;;;;12.43;6.90;;;;;;;13.31;100.00;101905.22;5098496;28;20063;-69
2023/09/15 06:43:06;;;;;;;;;;;;;;;13.41;100.00;101902.59;5100306;27;20676;-68
2023/09/15 06:45:34;;;;;;;11.52;6.47;;;;;;;13.44;100.00;101902.31;5111990;27;19927;-67
2023/09/15 06:48:02;;;;;;;10.75;6.07;;;;;;;13.46;100.00;101900.38;5096673;27;20052;-68
2023/09/15 06:50:28;;;;;;;15.23;7.30;;;;;;;13.51;100.00;101898.16;5098968;27;20134;-68
2023/09/15 06:52:55;;;;;;;11.65;6.68;;;;;;;13.50;100.00;101888.56;5103620;27;20047;-68
2023/09/15 06:55:21;;;;;;;10.38;6.55;;;;;;;13.54;100.00;101892.59;5103027;27;20127;-68
2023/09/15 06:57:48;;;;;;;11.15;6.72;;;;;;;13.57;100.00;101892.31;5099963;27;20112;-67
2023/09/15 07:00:15;;;;;;;14.18;7.00;;;;;;;13.62;100.00;101889.25;5097369;27;20666;-67
2023/09/15 07:02:41;;;;;;;12.68;7.28;;;;;;;13.64;100.00;101888.16;5095930;28;20100;-68
2023/09/15 07:05:08;;;;;;;10.57;6.15;;;;;;;13.68;100.00;101877.31;5082980;28;20048;-68
2023/09/15 07:07:34;;;;;;;12.82;6.63;;;;;;;13.70;100.00;101878.88;5096800;28;20084;-67
2023/09/15 07:10:01;;;;;;;11.88;6.55;;;;;;;13.73;100.00;101878.56;5097460;28;20047;-68
2023/09/15 07:12:28;;;;;;;13.77;6.97;;;;;;;13.80;100.00;101887.59;5092618;28;20069;-68
2023/09/15 07:14:54;;;;;;;11.68;7.10;;;;;;;13.87;100.00;101884.38;5100004;27;20726;-68
2023/09/15 07:17:21;;;;;;;10.95;6.13;;;;;;;13.91;100.00;101877.84;5099595;27;20657;-69
2023/09/15 07:19:50;;;;;;;12.50;6.75;;;;;;;13.95;100.00;101882.69;5097585;27;20055;-68
2023/09/15 07:22:20;;;;;;;9.57;6.35;;;;;;;13.99;100.00;101878.78;5102045;27;20747;-68
2023/09/15 07:24:46;;;;;;;;;;;;;;;14.08;100.00;101881.56;5094595;27;20667;-68
2023/09/15 07:27:13;;;;;;;13.48;6.32;;;;;;;14.10;100.00;101876.97;5103282;27;20483;-68
2023/09/15 07:29:39;;;;;;;10.95;6.32;;;;;;;14.17;100.00;101873.59;5083468;28;20060;-68
2023/09/15 07:32:06;;;;;;;9.95;4.90;;;;;;;14.19;100.00;101876.06;5098299;27;20055;-68
2023/09/15 07:34:33;;;;;;;10.98;5.15;;;;;;;14.35;100.00;101878.13;5090911;27;20051;-69
2023/09/15 07:37:00;;;;;;;15.00;5.97;;;;;;;14.39;100.00;101869.75;5100645;27;20146;-68
2023/09/15 07:39:29;;;;;;;8.73;4.85;;;;;;;14.53;100.00;101873.72;5098262;28;20071;-68
2023/09/15 07:41:56;;;;;;;10.60;5.72;;;;;;;14.59;100.00;101861.78;5095933;27;20098;-68
2023/09/15 07:44:22;;;;;;;11.68;5.82;;;;;;;14.62;100.00;101859.69;5091014;27;20148;-68
2023/09/15 07:46:49;;;;;;;9.80;6.18;;;;;;;14.69;100.00;101849.34;5088266;28;20091;-68
2023/09/15 07:49:16;;;;;;;13.35;6.40;;;;;;;14.74;100.00;101855.03;5099336;27;20052;-68
2023/09/15 07:51:43;;;;;;;10.55;5.82;;;;;;;14.81;100.00;101845.50;5092883;28;20647;-68
2023/09/15 07:54:09;;;;;;;13.82;5.93;;;;;;;14.82;100.00;101854.28;5102014;28;20135;-68
2023/09/15 07:56:36;;;;;;;11.27;5.85;;;;;;;14.88;100.00;101845.75;5096508;28;20131;-69
2023/09/15 07:59:03;;;;;;;12.20;5.00;;;;;;;15.01;100.00;101850.66;5087978;28;20272;-69
2023/09/15 08:01:30;;;;;;;10.18;5.97;;;;;;;15.00;100.00;101839.25;5105017;28;20051;-68
2023/09/15 08:03:56;;;;;;;11.13;5.90;;;;;;;15.07;100.00;101841.31;5089359;28;20063;-68
2023/09/15 08:06:26;;;;;;;11.55;5.93;;;;;;;15.13;100.00;101846.84;5107916;28;20082;-69
2023/09/15 08:08:53;;;;;;;11.30;6.35;;;;;;;15.25;100.00;101847.44;5092210;28;20512;-68
2023/09/15 08:11:19;;;;;;;8.88;5.22;;;;;;;15.30;100.00;101841.69;5100527;28;20495;-68
2023/09/15 08:13:46;;;;;;;13.02;5.78;;;;;;;15.38;100.00;101836.44;5096421;28;20056;-68
2023/09/15 08:16:13;;;;;;;13.10;5.85;;;;;;;15.45;100.00;101840.16;5105743;28;20051;-68
2023/09/15 08:18:40;;;;;;;9.77;4.78;;;;;;;15.60;100.00;101840.41;5096400;28;20146;-69
2023/09/15 08:21:07;;;;;;;13.95;6.20;;;;;;;15.63;100.00;101834.81;5090631;28;20051;-69
2023/09/15 08:23:34;;;;;;;15.63;6.55;;;;;;;15.73;100.00;101837.41;5091423;28;20195;-68
2023/09/15 08:26:01;;;;;;;12.10;6.25;;;;;;;15.77;100.00;101834.28;5085782;28;20035;-69
2023/09/15 08:28:28;;;;;;;10.77;5.63;;;;;;;15.80;100.00;101836.63;5096082;28;20570;-68
2023/09/15 08:30:54;;;;;;;8.13;4.30;;;;;;;15.90;100.00;101841.00;5094994;28;20506;-69
2023/09/15 08:33:21;;;;;;;9.88;4.82;;;;;;;15.99;100.00;101840.88;5105866;27;20585;-69
2023/09/15 08:35:47;;;;;;;11.27;5.30;;;;;;;16.16;100.00;101844.41;5102175;28;20709;-68
2023/09/15 08:38:14;;;;;;;9.85;5.60;;;;;;;16.26;100.00;101844.28;5088615;28;20135;-69
2023/09/15 08:40:50;;;;;;;10.20;5.28;;;;;;;16.43;100.00;101844.38;5093770;27;20485;-68
2023/09/15 08:43:16;;;;;;;11.10;5.53;;;;;;;16.48;100.00;101840.25;5114311;28;20074;-69
2023/09/15 08:45:47;;;;;;;11.40;5.93;;;;;;;16.64;100.00;101843.94;5090370;27;20060;-67
2023/09/15 08:48:23;;;;;;;10.57;6.07;;;;;;;16.77;100.00;101831.06;5098138;27;20040;-68
2023/09/15 08:50:52;;;;;;;9.55;5.13;;;;;;;16.91;100.00;101837.56;5100231;27;20492;-68
2023/09/15 08:53:19;;;;;;;9.07;5.47;;;;;;;17.08;100.00;101828.63;5099649;27;20055;-67
2023/09/15 08:55:46;;;;;;;11.30;5.90;;;;;;;17.26;100.00;101836.44;5094424;28;20051;-68
2023/09/15 08:58:14;;;;;;;8.25;5.50;;;;;;;17.41;100.00;101830.47;5099768;27;20130;-68
2023/09/15 09:00:42;;;;;;;12.10;5.93;;;;;;;17.51;100.00;101839.09;5095641;27;20379;-69
2023/09/15 09:03:12;;;;;;;8.60;5.72;;;;;;;17.64;100.00;101833.25;5101406;27;20284;-68
2023/09/15 09:05:46;;;;;;;11.95;6.47;;;;;;;17.76;100.00;101829.28;5103037;27;20074;-69
2023/09/15 09:08:13;;;;;;;10.27;5.82;;;;;;;17.89;100.00;101816.31;5089983;27;20044;-68
2023/09/15 09:10:41;;;;;;;13.38;6.35;;;;;;;18.01;100.00;101823.91;5112409;27;20123;-68
2023/09/15 09:13:07;;;;;;;14.50;7.70;;;;;;;18.11;100.00;101814.75;5091253;28;20051;-68
2023/09/15 09:15:35;;;;;;;10.63;5.70;;;;;;;18.24;100.00;101819.50;5101551;27;20055;-68
2023/09/15 09:18:16;;;;;;;8.00;5.67;;;;;;;18.28;100.00;101818.16;5107004;27;20540;-68
2023/09/15 09:20:43;;;;;;;9.13;5.63;;;;;;;18.44;100.00;101827.06;5094505;27;20056;-68
2023/09/15 09:23:10;;;;;;;13.18;5.53;;;;;;;18.59;100.00;101814.69;5099933;27;20588;-68
2023/09/15 09:25:39;;;;;;;11.82;5.57;;;;;;;18.77;100.00;101819.72;5091750;28;20039;-68
2023/09/15 09:28:06;;;;;;;10.68;6.07;;;;;;;18.93;100.00;101821.47;5099628;27;20081;-68
2023/09/15 09:30:33;;;;;;;11.88;5.80;;;;;;;19.12;100.00;101814.84;5085393;27;20112;-68
2023/09/15 09:32:59;;;;;;;11.00;5.63;;;;;;;19.29;100.00;101813.72;5100424;27;20044;-68
2023/09/15 09:35:26;;;;;;;10.88;5.30;;;;;;;19.49;98.38;101811.34;5084246;27;20051;-68
2023/09/15 09:37:55;;;;;;;8.80;5.07;;;;;;;19.70;95.39;101808.00;5099988;27;20043;-68
2023/09/15 09:40:22;;;;;;;10.60;5.28;;;;;;;19.85;94.25;101800.03;5100744;28;20513;-68
2023/09/15 09:42:49;;;;;;;10.23;5.23;;;;;;;20.00;93.10;101800.03;5090286;28;20051;-68
2023/09/15 09:45:17;;;;;;;11.93;4.93;;;;;;;20.20;96.18;101794.94;5113008;27;20055;-68
2023/09/15 09:47:44;;;;;;;12.40;5.25;;;;;;;20.38;90.60;101796.38;5088232;28;20147;-68
2023/09/15 09:50:11;;;;;;;9.98;5.07;;;;;;;20.57;92.58;101787.78;5108064;27;20570;-68
2023/09/15 09:52:39;;;;;;;9.70;5.13;;;;;;;20.72;84.39;101782.44;5095666;27;20067;-67
2023/09/15 09:55:08;;;;;;;9.10;4.45;;;;;;;20.89;83.72;101783.81;5096160;28;20201;-68
2023/09/15 09:57:38;;;;;;;11.18;4.43;;;;;;;21.17;81.25;101779.53;5100122;27;20668;-68
2023/09/15 10:00:09;;;;;;;10.88;4.63;;;;;;;21.35;77.80;101782.53;5090955;27;20052;-68
2023/09/15 10:02:37;;;;;;;7.60;4.00;;;;;;;21.59;76.41;101783.97;5092187;27;20047;-68
2023/09/15 10:05:04;;;;;;;10.15;3.67;;;;;;;21.81;74.66;101791.88;5095754;27;20051;-69
2023/09/15 10:07:31;;;;;;;9.00;3.80;;;;;;;22.05;72.72;101788.72;5099505;27;20468;-68
2023/09/15 10:09:58;;;;;;;9.23;4.03;;;;;;;22.25;70.77;101791.50;5090130;28;20736;-68
2023/09/15 10:12:25;;;;;;;7.65;3.60;;;;;;;22.43;66.48;101787.44;5107299;27;20345;-68
2023/09/15 10:14:52;;;;;;;9.50;4.50;;;;;;;22.45;62.96;101778.19;5098392;27;20063;-69
2023/09/15 10:17:19;;;;;;;7.85;3.90;;;;;;;22.65;63.70;101774.72;5099364;27;20051;-69
2023/09/15 10:19:48;;;;;;;5.83;3.13;;;;;;;22.88;66.88;101772.50;5101440;27;20150;-69
2023/09/15 10:22:16;;;;;;;8.35;3.60;;;;;;;23.03;63.24;101775.00;5097356;27;20055;-68
2023/09/15 10:24:47;;;;;;;6.78;3.38;;;;;;;23.09;61.05;101766.16;5101616;27;20052;-69
2023/09/15 10:27:14;;;;;;;7.90;4.05;;;;;;;23.38;64.84;101769.38;5094428;27;20089;-68
2023/09/15 10:29:44;;;;;;;7.82;3.83;;;;;;;23.47;59.39;101770.81;5098136;27;20130;-68
2023/09/15 10:32:18;;;;;;;7.63;3.78;;;;;;;23.68;61.84;101764.38;5098818;27;20535;-68
2023/09/15 10:34:45;;;;;;;7.60;3.95;;;;;;;23.78;61.58;101763.97;5097315;27;20044;-69
2023/09/15 10:37:12;;;;;;;6.97;3.58;;;;;;;23.97;61.89;101764.94;5098016;27;20067;-68
2023/09/15 10:39:41;;;;;;;7.03;4.03;;;;;;;24.11;58.01;101763.03;5098535;27;20047;-69
2023/09/15 10:42:10;;;;;;;6.50;3.55;;;;;;;24.30;59.38;101755.91;5093127;27;20055;-69
2023/09/15 10:44:36;;;;;;;7.22;4.13;;;;;;;24.42;56.88;101745.31;5089338;27;20480;-68
2023/09/15 10:47:15;;;;;;;6.53;3.95;;;;;;;24.67;57.41;101743.50;5100742;27;20040;-69
2023/09/15 10:49:49;;;;;;;8.43;4.00;;;;;;;24.89;57.40;101745.00;5096609;28;20058;-68
2023/09/15 10:52:15;;;;;;;7.97;3.97;;;;;;;24.88;55.57;101744.19;5092734;27;20044;-68
2023/09/15 10:54:41;;;;;;;9.00;4.43;;;;;;;25.12;55.92;101739.00;5100272;27;20087;-69
2023/09/15 10:57:09;;;;;;;8.73;4.38;;;;;;;25.17;54.81;101739.16;5091833;27;20680;-69
2023/09/15 10:59:36;;;;;;;6.22;3.97;;;;;;;25.34;55.19;101742.13;5100466;27;20077;-69
2023/09/15 11:02:03;;;;;;;9.05;4.70;;;;;;;25.56;54.32;101737.97;5101465;27;20503;-68
2023/09/15 11:04:29;;;;;;;7.72;4.45;;;;;;;25.60;53.22;101735.63;5095740;28;20100;-68
2023/09/15 11:06:56;;;;;;;8.48;4.47;;;;;;;25.68;52.92;101726.44;5100125;27;20051;-68
2023/09/15 11:09:25;;;;;;;7.30;4.13;;;;;;;25.80;52.45;101719.28;5087020;28;20078;-69
2023/09/15 11:11:52;;;;;;;9.68;4.55;;;;;;;26.00;52.56;101716.34;5096813;28;20504;-68
2023/09/15 11:14:21;;;;;;;8.77;3.80;;;;;;;26.06;52.17;101722.69;5093424;28;20059;-68
2023/09/15 11:16:49;;;;;;;7.78;4.38;;;;;;;26.08;52.68;101720.59;5102513;27;20052;-67